Hlavní strana
METAR-TAF:

METAR-TAF

Letiště :

Jönköping, Švédsko

zeměpisná šířka: 57-46N, zeměpisná délka: 014-05E, výška: 226 m

Aktuální stav počasí

Zpráva byla vytvořena před 43 minutami, v 11:20 UTC
Jihovýchodní vítr 10 kt
Teplota 2°C
Vlhkost vzduchu 87%
Tlak 994 hPa
Viditelnost 10 km a více

METAR: ESGJ 291120Z AUTO 13010KT 9999 BKN013/// OVC020/// 02/M00 Q0994

Čas: 13:03 (12:03 UTC)

Předpověď počasí

Zpráva byla vytvořena před 18 hodinami a 33 minutami, v 17:30 UTC
Předpověď platná od 28 v 18 UTC do 28 v 21 UTC
Jihojihozápadní vítr 7 kt
Viditelnost 10 km a více
Skoro jasno ve výšce 2500 ft

TAF: ESGJ 281730Z 2818/2821 21007KT 9999 FEW025

Stav a předpovědi počasí z více než 4 000 letišť (zprávy METAR a TAF).

Červené a žluté tečky na mapě představují dostupné meteorologické stanice.

Když kurzor umístíte na tečku, zobrazí se název stanice.

Pak kliknutím zobrazíte stav a předpověď počasí.

Chcete-li změnit mapu, kliknutím na zelené tlačítko se znaménkem +mapu přiblížíte, kliknutím na zelené tlačítko se znaménkem – mapu oddálíte a kliknutím na zelené šipky přejdete na sousední mapy.


METAR-TAF: